Aktuální počasí v Česku a ve světě - METAR

Seznam meteostanic umístěných nejčasteji na letišti v ČR a ve světě

Vyhledat místa podle abecedy:
A B C D E F G H I J K L M N O P Q R S T U V W X Y Z

Filtrovat:

ID stanice:
a/nebo
Název místa (fulltext):
 
Místo (ID)Naposledy načteno 
Doksany - Litoměřice (Doksany) 18.04.2024 10:00 UTC Zobrazit data
Místo: Doksany - Litoměřice
Teplota: 9 °C (pocitová: 3.4 °C)
Vítr: 5 m/s z(e) 340°
Počasí: skoro zataženo
Dohlednost: 35 km
Zákl. oblačnosti: 5/8 1200 m
Vlhkost: 58%
Dukovany (Dukovany) 18.04.2024 10:00 UTC Zobrazit data
Místo: Dukovany
Teplota: 7 °C (pocitová: 0.6 °C)
Vítr: 5 m/s z(e) 10°
Počasí: skoro zataženo
Dohlednost: 26 km
Zákl. oblačnosti: 4/8 900 m;6/8 6000 m
Vlhkost: 57%
Dakar (GOOY) 18.04.2024 10:00 UTC Zobrazit METAR
GOOY 181000Z 02014KT CAVOK 27/16 Q1012
Damascus (OSDI) 18.04.2024 10:00 UTC Zobrazit METAR
OSDI 181000Z 22025KT CAVOK 30/05 Q1011
Debrecen (LHDC) 18.04.2024 09:45 UTC Zobrazit METAR
LHDC 180945Z AUTO 01014KT 340V040 CAVOK 09/02 Q1006 NOSIG
Delhi (VIDP) 18.04.2024 10:00 UTC Zobrazit METAR
VIDP 181000Z 27011KT 6000 FEW100 38/09 Q1006 NOSIG
Dhaka (VGZR) Zatím nenačteno  
Diego Garcia (FJDG) 18.04.2024 09:55 UTC Zobrazit METAR
FJDG 180955Z 15014G20KT 9999 SCT022 BKN220 31/26 A2978 RMK SLP081 P0007 T03110261
Djibouti (HDAM) 18.04.2024 08:00 UTC Zobrazit METAR
HDAM 180800Z 10011KT 9999 FEW023 34/21 Q1010
Dnipropetrovs'k (UKDD) 12.08.2013 14:00 UTC Zobrazit METAR
UKDD 121400Z CAVOK 33/13 Q1012 08090070 NOSIG
Dodoma (HTDO) 18.04.2024 08:00 UTC Zobrazit METAR
HTDO 180800Z 08012KT 9999 BKN026 25/17 Q1021 NOSIG
Doha (OTBD) 18.04.2024 10:00 UTC Zobrazit METAR
OTBD 181000Z 05010KT 020V080 CAVOK 32/14 Q1009 NOSIG
Dortmund (EDLW) 18.04.2024 09:50 UTC Zobrazit METAR
EDLW 180950Z 33005KT 250V030 9999 SCT017 SCT020 BKN045 09/04 Q1018
Dresden (EDDC) 18.04.2024 09:50 UTC Zobrazit METAR
EDDC 180950Z AUTO 35009KT 320V020 9999 FEW027 SCT034 BKN047 06/00 Q1014 NOSIG
Dublin (EIDW) 18.04.2024 10:00 UTC Zobrazit METAR
EIDW 181000Z 26009KT 210V300 9999 FEW007 SCT010 BKN013 09/07 Q1023 NOSIG
Dubrovnik (LDDU) 18.04.2024 10:00 UTC Zobrazit METAR
LDDU 181000Z 19009KT 160V230 9999 FEW040 15/04 Q1007 NOSIG
Dushanbe (UTDD) Zatím nenačteno  
Dusseldorf (EDDL) 18.04.2024 09:50 UTC Zobrazit METAR
EDDL 180950Z AUTO 35006KT 310V040 9999 FEW027 10/02 Q1019 NOSIG
Dzaoudzi (FMCZ) 18.04.2024 10:00 UTC Zobrazit METAR
FMCZ 181000Z AUTO 13013KT 9999 FEW024 31/25 Q1013 NOSIG
Reklama

Krásné fotografie přírody - (nejen) tapety na pozadí do počítače

Článek
Fotogalerie jarních květin
13. dubna 2023 12:19
Článek
Fotografie slunečné zimní krajiny
7. prosince 2022 17:13
Článek
Obrázky na téma slunečno
25. srpna 2022 05:03
Článek
Obrázky květin
5. června 2022 12:12

Vyhledat
Přidejte si Počasí Slunečno na svůj Facebook
Facebook Počasí Slunečno.cz
Aplikace pro Windows 10/11 nebo chytré mobilní telefony
Stáhněte si aplikaci Slunečno.cz na Microsoft Store Stáhněte si aplikaci Slunečno.cz na Google Play